sensor_id;sensor_type;location;lat;lon;timestamp;P1;durP1;ratioP1;P2;durP2;ratioP2
39066;SDS011;24821;51.988;6.020;2023-07-31T00:00:07;8.80;;;8.50;;
39066;SDS011;24821;51.988;6.020;2023-07-31T00:02:36;9.25;;;8.85;;
39066;SDS011;24821;51.988;6.020;2023-07-31T00:05:02;8.60;;;8.10;;
39066;SDS011;24821;51.988;6.020;2023-07-31T00:07:27;9.77;;;9.38;;
39066;SDS011;24821;51.988;6.020;2023-07-31T00:09:53;9.38;;;8.98;;
39066;SDS011;24821;51.988;6.020;2023-07-31T00:12:19;8.93;;;8.43;;
39066;SDS011;24821;51.988;6.020;2023-07-31T00:14:45;9.93;;;9.52;;
39066;SDS011;24821;51.988;6.020;2023-07-31T00:17:11;9.98;;;9.57;;
39066;SDS011;24821;51.988;6.020;2023-07-31T00:19:36;9.68;;;9.07;;
39066;SDS011;24821;51.988;6.020;2023-07-31T00:22:02;10.05;;;9.55;;
39066;SDS011;24821;51.988;6.020;2023-07-31T00:24:27;8.73;;;8.43;;
39066;SDS011;24821;51.988;6.020;2023-07-31T00:26:53;8.45;;;8.15;;
39066;SDS011;24821;51.988;6.020;2023-07-31T00:29:19;9.35;;;8.95;;
39066;SDS011;24821;51.988;6.020;2023-07-31T00:31:44;9.20;;;8.80;;
39066;SDS011;24821;51.988;6.020;2023-07-31T00:34:10;9.98;;;9.50;;
39066;SDS011;24821;51.988;6.020;2023-07-31T00:36:35;9.05;;;8.68;;
39066;SDS011;24821;51.988;6.020;2023-07-31T00:39:01;10.32;;;9.82;;
39066;SDS011;24821;51.988;6.020;2023-07-31T00:41:26;9.38;;;9.00;;
39066;SDS011;24821;51.988;6.020;2023-07-31T00:43:52;9.43;;;9.02;;
39066;SDS011;24821;51.988;6.020;2023-07-31T00:46:18;10.68;;;9.55;;
39066;SDS011;24821;51.988;6.020;2023-07-31T00:48:43;9.55;;;9.15;;
39066;SDS011;24821;51.988;6.020;2023-07-31T00:51:09;9.55;;;9.15;;
39066;SDS011;24821;51.988;6.020;2023-07-31T00:53:35;9.77;;;9.35;;
39066;SDS011;24821;51.988;6.020;2023-07-31T00:56:01;10.13;;;9.63;;
39066;SDS011;24821;51.988;6.020;2023-07-31T00:58:28;10.55;;;10.05;;
39066;SDS011;24821;51.988;6.020;2023-07-31T01:00:53;11.40;;;10.80;;
39066;SDS011;24821;51.988;6.020;2023-07-31T01:03:19;11.35;;;10.68;;
39066;SDS011;24821;51.988;6.020;2023-07-31T01:08:35;12.88;;;12.23;;
39066;SDS011;24821;51.988;6.020;2023-07-31T01:11:19;15.05;;;13.82;;
39066;SDS011;24821;51.988;6.020;2023-07-31T01:13:49;16.48;;;13.95;;
39066;SDS011;24821;51.988;6.020;2023-07-31T01:16:15;17.45;;;15.52;;
39066;SDS011;24821;51.988;6.020;2023-07-31T01:18:40;20.05;;;15.05;;
39066;SDS011;24821;51.988;6.020;2023-07-31T01:21:19;18.27;;;15.55;;
39066;SDS011;24821;51.988;6.020;2023-07-31T01:26:43;18.27;;;15.32;;
39066;SDS011;24821;51.988;6.020;2023-07-31T01:32:02;17.52;;;13.70;;
39066;SDS011;24821;51.988;6.020;2023-07-31T01:34:29;18.77;;;15.20;;
39066;SDS011;24821;51.988;6.020;2023-07-31T01:36:57;14.30;;;12.52;;
39066;SDS011;24821;51.988;6.020;2023-07-31T01:39:23;17.45;;;14.50;;
39066;SDS011;24821;51.988;6.020;2023-07-31T01:41:49;15.00;;;13.52;;
39066;SDS011;24821;51.988;6.020;2023-07-31T01:44:14;15.15;;;13.65;;
39066;SDS011;24821;51.988;6.020;2023-07-31T01:46:40;14.32;;;13.13;;
39066;SDS011;24821;51.988;6.020;2023-07-31T01:49:05;15.05;;;13.73;;
39066;SDS011;24821;51.988;6.020;2023-07-31T01:51:31;13.27;;;11.93;;
39066;SDS011;24821;51.988;6.020;2023-07-31T01:53:59;15.07;;;13.68;;
39066;SDS011;24821;51.988;6.020;2023-07-31T01:56:25;15.38;;;13.82;;
39066;SDS011;24821;51.988;6.020;2023-07-31T01:58:51;13.75;;;12.43;;
39066;SDS011;24821;51.988;6.020;2023-07-31T02:01:16;12.80;;;11.65;;
39066;SDS011;24821;51.988;6.020;2023-07-31T02:03:42;25.77;;;13.63;;
39066;SDS011;24821;51.988;6.020;2023-07-31T02:06:07;14.30;;;12.90;;
39066;SDS011;24821;51.988;6.020;2023-07-31T02:08:33;16.50;;;14.35;;
39066;SDS011;24821;51.988;6.020;2023-07-31T02:10:58;20.63;;;12.52;;
39066;SDS011;24821;51.988;6.020;2023-07-31T02:13:25;17.77;;;12.65;;
39066;SDS011;24821;51.988;6.020;2023-07-31T02:15:50;13.00;;;11.80;;
39066;SDS011;24821;51.988;6.020;2023-07-31T02:18:16;13.80;;;12.52;;
39066;SDS011;24821;51.988;6.020;2023-07-31T02:20:41;13.73;;;12.40;;
39066;SDS011;24821;51.988;6.020;2023-07-31T02:23:07;14.10;;;12.60;;
39066;SDS011;24821;51.988;6.020;2023-07-31T02:25:32;12.43;;;11.38;;
39066;SDS011;24821;51.988;6.020;2023-07-31T02:27:58;13.57;;;12.52;;
39066;SDS011;24821;51.988;6.020;2023-07-31T02:30:24;14.35;;;12.98;;
39066;SDS011;24821;51.988;6.020;2023-07-31T02:32:49;14.88;;;13.38;;
39066;SDS011;24821;51.988;6.020;2023-07-31T02:35:15;14.15;;;12.95;;
39066;SDS011;24821;51.988;6.020;2023-07-31T02:37:41;13.77;;;12.60;;
39066;SDS011;24821;51.988;6.020;2023-07-31T02:40:07;13.27;;;12.27;;
39066;SDS011;24821;51.988;6.020;2023-07-31T02:42:33;13.15;;;12.00;;
39066;SDS011;24821;51.988;6.020;2023-07-31T02:44:59;13.27;;;12.05;;
39066;SDS011;24821;51.988;6.020;2023-07-31T02:47:24;15.05;;;13.75;;
39066;SDS011;24821;51.988;6.020;2023-07-31T02:49:50;17.38;;;11.70;;
39066;SDS011;24821;51.988;6.020;2023-07-31T02:52:15;17.83;;;13.68;;
39066;SDS011;24821;51.988;6.020;2023-07-31T02:54:41;13.48;;;12.48;;
39066;SDS011;24821;51.988;6.020;2023-07-31T02:57:07;15.30;;;12.98;;
39066;SDS011;24821;51.988;6.020;2023-07-31T02:59:32;14.27;;;12.02;;
39066;SDS011;24821;51.988;6.020;2023-07-31T03:01:58;13.73;;;12.63;;
39066;SDS011;24821;51.988;6.020;2023-07-31T03:04:23;14.45;;;12.63;;
39066;SDS011;24821;51.988;6.020;2023-07-31T03:06:49;15.85;;;14.43;;
39066;SDS011;24821;51.988;6.020;2023-07-31T03:09:15;12.75;;;11.75;;
39066;SDS011;24821;51.988;6.020;2023-07-31T03:11:40;16.92;;;13.95;;
39066;SDS011;24821;51.988;6.020;2023-07-31T03:14:06;13.90;;;12.43;;
39066;SDS011;24821;51.988;6.020;2023-07-31T03:16:32;13.82;;;12.82;;
39066;SDS011;24821;51.988;6.020;2023-07-31T03:18:57;14.77;;;13.68;;
39066;SDS011;24821;51.988;6.020;2023-07-31T03:21:23;14.60;;;13.18;;
39066;SDS011;24821;51.988;6.020;2023-07-31T03:23:48;14.15;;;12.80;;
39066;SDS011;24821;51.988;6.020;2023-07-31T03:26:14;13.95;;;12.85;;
39066;SDS011;24821;51.988;6.020;2023-07-31T03:28:39;14.10;;;12.70;;
39066;SDS011;24821;51.988;6.020;2023-07-31T03:31:05;13.40;;;12.40;;
39066;SDS011;24821;51.988;6.020;2023-07-31T03:33:31;13.30;;;12.13;;
39066;SDS011;24821;51.988;6.020;2023-07-31T03:35:56;12.55;;;11.65;;
39066;SDS011;24821;51.988;6.020;2023-07-31T03:38:22;12.90;;;11.90;;
39066;SDS011;24821;51.988;6.020;2023-07-31T03:40:48;12.73;;;11.65;;
39066;SDS011;24821;51.988;6.020;2023-07-31T03:43:13;13.60;;;11.85;;
39066;SDS011;24821;51.988;6.020;2023-07-31T03:45:40;13.90;;;12.57;;
39066;SDS011;24821;51.988;6.020;2023-07-31T03:48:06;12.95;;;11.82;;
39066;SDS011;24821;51.988;6.020;2023-07-31T03:50:32;13.25;;;11.50;;
39066;SDS011;24821;51.988;6.020;2023-07-31T03:52:58;12.70;;;11.38;;
39066;SDS011;24821;51.988;6.020;2023-07-31T03:55:24;12.73;;;11.35;;
39066;SDS011;24821;51.988;6.020;2023-07-31T03:57:49;13.25;;;11.93;;
39066;SDS011;24821;51.988;6.020;2023-07-31T04:00:15;12.88;;;11.63;;
39066;SDS011;24821;51.988;6.020;2023-07-31T04:02:40;13.23;;;12.00;;
39066;SDS011;24821;51.988;6.020;2023-07-31T04:05:07;12.57;;;10.93;;
39066;SDS011;24821;51.988;6.020;2023-07-31T04:07:32;11.50;;;10.52;;
39066;SDS011;24821;51.988;6.020;2023-07-31T04:09:58;11.43;;;10.80;;
39066;SDS011;24821;51.988;6.020;2023-07-31T04:12:24;12.45;;;11.35;;
39066;SDS011;24821;51.988;6.020;2023-07-31T04:14:50;13.73;;;11.85;;
39066;SDS011;24821;51.988;6.020;2023-07-31T04:17:17;11.30;;;10.25;;
39066;SDS011;24821;51.988;6.020;2023-07-31T04:19:42;12.13;;;11.10;;
39066;SDS011;24821;51.988;6.020;2023-07-31T04:22:08;12.57;;;11.55;;
39066;SDS011;24821;51.988;6.020;2023-07-31T04:24:34;13.52;;;12.23;;
39066;SDS011;24821;51.988;6.020;2023-07-31T04:26:59;13.57;;;11.90;;
39066;SDS011;24821;51.988;6.020;2023-07-31T04:29:25;11.68;;;10.32;;
39066;SDS011;24821;51.988;6.020;2023-07-31T04:31:50;10.85;;;10.15;;
39066;SDS011;24821;51.988;6.020;2023-07-31T04:34:16;10.73;;;9.68;;
39066;SDS011;24821;51.988;6.020;2023-07-31T04:36:41;16.92;;;10.30;;
39066;SDS011;24821;51.988;6.020;2023-07-31T04:39:07;10.98;;;10.27;;
39066;SDS011;24821;51.988;6.020;2023-07-31T04:41:33;12.95;;;11.77;;
39066;SDS011;24821;51.988;6.020;2023-07-31T04:43:58;11.77;;;10.65;;
39066;SDS011;24821;51.988;6.020;2023-07-31T04:46:24;11.23;;;10.43;;
39066;SDS011;24821;51.988;6.020;2023-07-31T04:48:50;12.52;;;10.07;;
39066;SDS011;24821;51.988;6.020;2023-07-31T04:51:15;12.07;;;9.85;;
39066;SDS011;24821;51.988;6.020;2023-07-31T04:53:41;11.15;;;10.38;;
39066;SDS011;24821;51.988;6.020;2023-07-31T04:56:06;13.50;;;10.57;;
39066;SDS011;24821;51.988;6.020;2023-07-31T04:58:32;11.40;;;10.50;;
39066;SDS011;24821;51.988;6.020;2023-07-31T05:00:57;11.13;;;10.23;;
39066;SDS011;24821;51.988;6.020;2023-07-31T05:03:23;11.35;;;10.30;;
39066;SDS011;24821;51.988;6.020;2023-07-31T05:05:49;11.82;;;10.50;;
39066;SDS011;24821;51.988;6.020;2023-07-31T05:08:15;19.50;;;11.88;;
39066;SDS011;24821;51.988;6.020;2023-07-31T05:10:42;12.48;;;11.25;;
39066;SDS011;24821;51.988;6.020;2023-07-31T05:13:08;10.93;;;9.93;;
39066;SDS011;24821;51.988;6.020;2023-07-31T05:15:33;13.20;;;9.90;;
39066;SDS011;24821;51.988;6.020;2023-07-31T05:17:59;12.38;;;10.93;;
39066;SDS011;24821;51.988;6.020;2023-07-31T05:20:25;11.15;;;10.32;;
39066;SDS011;24821;51.988;6.020;2023-07-31T05:22:50;12.00;;;10.35;;
39066;SDS011;24821;51.988;6.020;2023-07-31T05:25:16;11.02;;;10.13;;
39066;SDS011;24821;51.988;6.020;2023-07-31T05:27:42;11.77;;;10.63;;
39066;SDS011;24821;51.988;6.020;2023-07-31T05:30:08;11.60;;;10.55;;
39066;SDS011;24821;51.988;6.020;2023-07-31T05:32:33;10.13;;;9.50;;
39066;SDS011;24821;51.988;6.020;2023-07-31T05:34:59;11.82;;;10.80;;
39066;SDS011;24821;51.988;6.020;2023-07-31T05:37:25;10.00;;;9.10;;
39066;SDS011;24821;51.988;6.020;2023-07-31T05:39:50;10.82;;;9.93;;
39066;SDS011;24821;51.988;6.020;2023-07-31T05:42:17;11.77;;;10.43;;
39066;SDS011;24821;51.988;6.020;2023-07-31T05:44:42;11.80;;;10.82;;
39066;SDS011;24821;51.988;6.020;2023-07-31T05:47:08;10.95;;;10.05;;
39066;SDS011;24821;51.988;6.020;2023-07-31T05:49:34;11.98;;;10.77;;
39066;SDS011;24821;51.988;6.020;2023-07-31T05:52:00;11.95;;;11.18;;
39066;SDS011;24821;51.988;6.020;2023-07-31T05:54:25;11.35;;;10.50;;
39066;SDS011;24821;51.988;6.020;2023-07-31T05:56:51;12.25;;;11.20;;
39066;SDS011;24821;51.988;6.020;2023-07-31T05:59:17;12.35;;;11.10;;
39066;SDS011;24821;51.988;6.020;2023-07-31T06:01:42;13.65;;;10.82;;
39066;SDS011;24821;51.988;6.020;2023-07-31T06:04:08;12.38;;;11.32;;
39066;SDS011;24821;51.988;6.020;2023-07-31T06:06:33;12.00;;;11.23;;
39066;SDS011;24821;51.988;6.020;2023-07-31T06:08:59;11.55;;;10.55;;
39066;SDS011;24821;51.988;6.020;2023-07-31T06:11:25;13.25;;;10.93;;
39066;SDS011;24821;51.988;6.020;2023-07-31T06:13:50;11.82;;;10.82;;
39066;SDS011;24821;51.988;6.020;2023-07-31T06:16:16;11.98;;;11.20;;
39066;SDS011;24821;51.988;6.020;2023-07-31T06:18:42;12.73;;;11.68;;
39066;SDS011;24821;51.988;6.020;2023-07-31T06:21:08;12.40;;;11.60;;
39066;SDS011;24821;51.988;6.020;2023-07-31T06:23:34;12.98;;;11.93;;
39066;SDS011;24821;51.988;6.020;2023-07-31T06:26:00;12.50;;;11.70;;
39066;SDS011;24821;51.988;6.020;2023-07-31T06:28:29;13.98;;;11.68;;
39066;SDS011;24821;51.988;6.020;2023-07-31T06:30:56;11.85;;;10.85;;
39066;SDS011;24821;51.988;6.020;2023-07-31T06:33:22;12.25;;;11.52;;
39066;SDS011;24821;51.988;6.020;2023-07-31T06:35:47;12.73;;;11.93;;
39066;SDS011;24821;51.988;6.020;2023-07-31T06:38:13;12.95;;;12.10;;
39066;SDS011;24821;51.988;6.020;2023-07-31T06:40:39;12.55;;;11.70;;
39066;SDS011;24821;51.988;6.020;2023-07-31T06:43:05;12.93;;;12.23;;
39066;SDS011;24821;51.988;6.020;2023-07-31T06:45:34;12.15;;;11.38;;
39066;SDS011;24821;51.988;6.020;2023-07-31T06:48:00;11.27;;;10.68;;
39066;SDS011;24821;51.988;6.020;2023-07-31T06:50:27;12.20;;;11.32;;
39066;SDS011;24821;51.988;6.020;2023-07-31T06:52:53;12.88;;;12.18;;
39066;SDS011;24821;51.988;6.020;2023-07-31T06:55:19;12.10;;;11.50;;
39066;SDS011;24821;51.988;6.020;2023-07-31T06:57:46;12.73;;;11.80;;
39066;SDS011;24821;51.988;6.020;2023-07-31T07:00:13;12.15;;;11.45;;
39066;SDS011;24821;51.988;6.020;2023-07-31T07:02:39;13.38;;;12.30;;
39066;SDS011;24821;51.988;6.020;2023-07-31T07:05:04;11.07;;;10.57;;
39066;SDS011;24821;51.988;6.020;2023-07-31T07:07:31;11.35;;;10.75;;
39066;SDS011;24821;51.988;6.020;2023-07-31T07:09:57;14.07;;;13.18;;
39066;SDS011;24821;51.988;6.020;2023-07-31T07:12:24;12.30;;;11.70;;
39066;SDS011;24821;51.988;6.020;2023-07-31T07:14:50;12.73;;;12.13;;
39066;SDS011;24821;51.988;6.020;2023-07-31T07:17:18;12.43;;;11.82;;
39066;SDS011;24821;51.988;6.020;2023-07-31T07:19:43;12.20;;;11.50;;
39066;SDS011;24821;51.988;6.020;2023-07-31T07:22:10;11.02;;;10.43;;
39066;SDS011;24821;51.988;6.020;2023-07-31T07:24:36;11.10;;;10.50;;
39066;SDS011;24821;51.988;6.020;2023-07-31T07:27:02;11.52;;;10.93;;
39066;SDS011;24821;51.988;6.020;2023-07-31T07:29:28;10.68;;;10.07;;
39066;SDS011;24821;51.988;6.020;2023-07-31T07:31:53;11.13;;;10.45;;
39066;SDS011;24821;51.988;6.020;2023-07-31T07:34:19;10.80;;;10.10;;
39066;SDS011;24821;51.988;6.020;2023-07-31T07:36:47;9.65;;;9.25;;
39066;SDS011;24821;51.988;6.020;2023-07-31T07:39:13;9.75;;;9.25;;
39066;SDS011;24821;51.988;6.020;2023-07-31T07:41:39;10.18;;;9.57;;
39066;SDS011;24821;51.988;6.020;2023-07-31T07:44:05;9.63;;;9.23;;
39066;SDS011;24821;51.988;6.020;2023-07-31T07:46:30;10.60;;;9.93;;
39066;SDS011;24821;51.988;6.020;2023-07-31T07:48:56;9.52;;;9.07;;
39066;SDS011;24821;51.988;6.020;2023-07-31T07:51:21;9.57;;;9.20;;
39066;SDS011;24821;51.988;6.020;2023-07-31T07:53:47;10.70;;;10.23;;
39066;SDS011;24821;51.988;6.020;2023-07-31T07:56:12;10.18;;;9.77;;
39066;SDS011;24821;51.988;6.020;2023-07-31T07:58:38;9.32;;;8.93;;
39066;SDS011;24821;51.988;6.020;2023-07-31T08:01:03;10.38;;;9.82;;
39066;SDS011;24821;51.988;6.020;2023-07-31T08:03:29;9.57;;;9.18;;
39066;SDS011;24821;51.988;6.020;2023-07-31T08:05:58;9.52;;;9.13;;
39066;SDS011;24821;51.988;6.020;2023-07-31T08:08:25;9.85;;;9.45;;
39066;SDS011;24821;51.988;6.020;2023-07-31T08:10:50;9.20;;;8.85;;
39066;SDS011;24821;51.988;6.020;2023-07-31T08:13:16;10.00;;;9.60;;
39066;SDS011;24821;51.988;6.020;2023-07-31T08:15:42;9.48;;;9.07;;
39066;SDS011;24821;51.988;6.020;2023-07-31T08:18:08;9.80;;;9.38;;
39066;SDS011;24821;51.988;6.020;2023-07-31T08:20:33;9.20;;;8.80;;
39066;SDS011;24821;51.988;6.020;2023-07-31T08:22:59;9.10;;;8.70;;
39066;SDS011;24821;51.988;6.020;2023-07-31T08:25:25;9.50;;;9.10;;
39066;SDS011;24821;51.988;6.020;2023-07-31T08:27:50;9.38;;;8.55;;
39066;SDS011;24821;51.988;6.020;2023-07-31T08:30:17;9.30;;;8.90;;
39066;SDS011;24821;51.988;6.020;2023-07-31T08:32:44;9.25;;;8.85;;
39066;SDS011;24821;51.988;6.020;2023-07-31T08:35:09;9.52;;;9.13;;
39066;SDS011;24821;51.988;6.020;2023-07-31T08:37:35;9.05;;;8.65;;
39066;SDS011;24821;51.988;6.020;2023-07-31T08:40:01;9.52;;;9.13;;
39066;SDS011;24821;51.988;6.020;2023-07-31T08:42:27;9.70;;;9.30;;
39066;SDS011;24821;51.988;6.020;2023-07-31T08:44:52;10.30;;;9.88;;
39066;SDS011;24821;51.988;6.020;2023-07-31T08:47:20;9.85;;;9.40;;
39066;SDS011;24821;51.988;6.020;2023-07-31T08:49:46;9.40;;;8.80;;
39066;SDS011;24821;51.988;6.020;2023-07-31T08:52:12;8.48;;;8.13;;
39066;SDS011;24821;51.988;6.020;2023-07-31T08:54:38;8.82;;;8.48;;
39066;SDS011;24821;51.988;6.020;2023-07-31T08:57:04;10.25;;;9.73;;
39066;SDS011;24821;51.988;6.020;2023-07-31T08:59:31;9.45;;;9.05;;
39066;SDS011;24821;51.988;6.020;2023-07-31T09:02:03;9.20;;;8.80;;
39066;SDS011;24821;51.988;6.020;2023-07-31T09:04:32;9.18;;;8.77;;
39066;SDS011;24821;51.988;6.020;2023-07-31T09:06:59;9.57;;;9.07;;
39066;SDS011;24821;51.988;6.020;2023-07-31T09:09:28;8.23;;;7.82;;
39066;SDS011;24821;51.988;6.020;2023-07-31T09:11:54;8.95;;;8.52;;
39066;SDS011;24821;51.988;6.020;2023-07-31T09:14:20;9.80;;;9.18;;
39066;SDS011;24821;51.988;6.020;2023-07-31T09:16:56;7.90;;;7.40;;
39066;SDS011;24821;51.988;6.020;2023-07-31T09:19:29;8.82;;;8.43;;
39066;SDS011;24821;51.988;6.020;2023-07-31T09:21:58;9.35;;;8.65;;
39066;SDS011;24821;51.988;6.020;2023-07-31T09:24:25;8.63;;;8.23;;
39066;SDS011;24821;51.988;6.020;2023-07-31T09:26:55;8.18;;;7.80;;
39066;SDS011;24821;51.988;6.020;2023-07-31T09:29:22;8.77;;;8.27;;
39066;SDS011;24821;51.988;6.020;2023-07-31T09:31:48;9.25;;;8.75;;
39066;SDS011;24821;51.988;6.020;2023-07-31T09:34:14;8.10;;;7.80;;
39066;SDS011;24821;51.988;6.020;2023-07-31T09:36:40;8.43;;;7.80;;
39066;SDS011;24821;51.988;6.020;2023-07-31T09:39:08;9.10;;;8.63;;
39066;SDS011;24821;51.988;6.020;2023-07-31T09:41:39;8.80;;;8.40;;
39066;SDS011;24821;51.988;6.020;2023-07-31T09:44:05;8.63;;;8.23;;
39066;SDS011;24821;51.988;6.020;2023-07-31T09:46:30;8.55;;;7.82;;
39066;SDS011;24821;51.988;6.020;2023-07-31T09:49:12;9.40;;;8.90;;
39066;SDS011;24821;51.988;6.020;2023-07-31T09:51:40;8.50;;;8.00;;
39066;SDS011;24821;51.988;6.020;2023-07-31T09:54:10;9.45;;;8.85;;
39066;SDS011;24821;51.988;6.020;2023-07-31T09:56:39;10.45;;;9.85;;
39066;SDS011;24821;51.988;6.020;2023-07-31T09:59:11;8.65;;;8.25;;
39066;SDS011;24821;51.988;6.020;2023-07-31T10:01:38;9.77;;;9.18;;
39066;SDS011;24821;51.988;6.020;2023-07-31T10:04:06;9.60;;;8.65;;
39066;SDS011;24821;51.988;6.020;2023-07-31T10:06:34;8.13;;;7.72;;
39066;SDS011;24821;51.988;6.020;2023-07-31T10:09:00;9.55;;;8.95;;
39066;SDS011;24821;51.988;6.020;2023-07-31T10:11:28;10.07;;;9.48;;
39066;SDS011;24821;51.988;6.020;2023-07-31T10:13:58;9.10;;;8.40;;
39066;SDS011;24821;51.988;6.020;2023-07-31T10:16:24;9.63;;;9.13;;
39066;SDS011;24821;51.988;6.020;2023-07-31T10:18:50;9.30;;;8.70;;
39066;SDS011;24821;51.988;6.020;2023-07-31T10:21:16;10.85;;;10.15;;
39066;SDS011;24821;51.988;6.020;2023-07-31T10:23:42;12.18;;;9.50;;
39066;SDS011;24821;51.988;6.020;2023-07-31T10:26:09;10.38;;;9.57;;
39066;SDS011;24821;51.988;6.020;2023-07-31T10:28:36;11.00;;;10.30;;
39066;SDS011;24821;51.988;6.020;2023-07-31T10:31:03;11.25;;;10.43;;
39066;SDS011;24821;51.988;6.020;2023-07-31T10:33:30;10.38;;;9.73;;
39066;SDS011;24821;51.988;6.020;2023-07-31T10:38:52;11.05;;;10.25;;
39066;SDS011;24821;51.988;6.020;2023-07-31T10:41:17;11.27;;;10.55;;
39066;SDS011;24821;51.988;6.020;2023-07-31T10:43:45;11.27;;;10.35;;
39066;SDS011;24821;51.988;6.020;2023-07-31T10:46:12;11.32;;;10.55;;
39066;SDS011;24821;51.988;6.020;2023-07-31T10:48:39;12.15;;;11.10;;
39066;SDS011;24821;51.988;6.020;2023-07-31T10:51:10;10.18;;;9.57;;
39066;SDS011;24821;51.988;6.020;2023-07-31T10:53:42;11.63;;;10.75;;
39066;SDS011;24821;51.988;6.020;2023-07-31T10:56:08;12.02;;;11.38;;
39066;SDS011;24821;51.988;6.020;2023-07-31T10:58:36;12.30;;;11.52;;
39066;SDS011;24821;51.988;6.020;2023-07-31T11:01:03;11.57;;;10.93;;
39066;SDS011;24821;51.988;6.020;2023-07-31T11:03:51;11.95;;;10.93;;
39066;SDS011;24821;51.988;6.020;2023-07-31T11:06:19;11.52;;;10.73;;
39066;SDS011;24821;51.988;6.020;2023-07-31T11:08:45;11.32;;;10.63;;
39066;SDS011;24821;51.988;6.020;2023-07-31T11:11:13;11.15;;;10.07;;
39066;SDS011;24821;51.988;6.020;2023-07-31T11:16:11;10.18;;;9.20;;
39066;SDS011;24821;51.988;6.020;2023-07-31T11:18:40;10.18;;;9.57;;
39066;SDS011;24821;51.988;6.020;2023-07-31T11:21:08;10.57;;;9.88;;
39066;SDS011;24821;51.988;6.020;2023-07-31T11:23:37;11.68;;;10.68;;
39066;SDS011;24821;51.988;6.020;2023-07-31T11:26:04;11.02;;;10.43;;
39066;SDS011;24821;51.988;6.020;2023-07-31T11:28:34;10.80;;;10.18;;
39066;SDS011;24821;51.988;6.020;2023-07-31T11:31:00;10.70;;;10.00;;
39066;SDS011;24821;51.988;6.020;2023-07-31T11:33:27;11.45;;;10.48;;
39066;SDS011;24821;51.988;6.020;2023-07-31T11:35:52;10.68;;;9.98;;
39066;SDS011;24821;51.988;6.020;2023-07-31T11:38:22;10.18;;;9.68;;
39066;SDS011;24821;51.988;6.020;2023-07-31T11:40:49;11.57;;;10.77;;
39066;SDS011;24821;51.988;6.020;2023-07-31T11:43:15;10.50;;;9.80;;
39066;SDS011;24821;51.988;6.020;2023-07-31T11:45:47;11.55;;;10.82;;
39066;SDS011;24821;51.988;6.020;2023-07-31T11:48:24;11.82;;;11.25;;
39066;SDS011;24821;51.988;6.020;2023-07-31T11:50:59;10.77;;;9.95;;
39066;SDS011;24821;51.988;6.020;2023-07-31T11:53:31;8.98;;;8.48;;
39066;SDS011;24821;51.988;6.020;2023-07-31T11:56:00;9.70;;;9.00;;
39066;SDS011;24821;51.988;6.020;2023-07-31T11:58:30;10.88;;;10.02;;
39066;SDS011;24821;51.988;6.020;2023-07-31T12:01:00;10.77;;;9.43;;
39066;SDS011;24821;51.988;6.020;2023-07-31T12:03:27;10.20;;;9.43;;
39066;SDS011;24821;51.988;6.020;2023-07-31T12:05:53;10.15;;;9.63;;
39066;SDS011;24821;51.988;6.020;2023-07-31T12:08:20;10.65;;;10.05;;
39066;SDS011;24821;51.988;6.020;2023-07-31T12:10:49;10.07;;;9.20;;
39066;SDS011;24821;51.988;6.020;2023-07-31T12:13:22;8.55;;;8.05;;
39066;SDS011;24821;51.988;6.020;2023-07-31T12:15:53;10.10;;;9.25;;
39066;SDS011;24821;51.988;6.020;2023-07-31T12:18:23;9.80;;;9.30;;
39066;SDS011;24821;51.988;6.020;2023-07-31T12:20:54;9.57;;;9.07;;
39066;SDS011;24821;51.988;6.020;2023-07-31T12:23:22;10.48;;;9.68;;
39066;SDS011;24821;51.988;6.020;2023-07-31T12:26:03;9.77;;;9.18;;
39066;SDS011;24821;51.988;6.020;2023-07-31T12:28:30;9.98;;;9.43;;
39066;SDS011;24821;51.988;6.020;2023-07-31T12:30:59;11.60;;;8.45;;
39066;SDS011;24821;51.988;6.020;2023-07-31T12:33:33;10.27;;;9.45;;
39066;SDS011;24821;51.988;6.020;2023-07-31T12:36:03;8.68;;;8.27;;
39066;SDS011;24821;51.988;6.020;2023-07-31T12:38:34;9.45;;;8.80;;
39066;SDS011;24821;51.988;6.020;2023-07-31T12:40:59;9.52;;;8.93;;
39066;SDS011;24821;51.988;6.020;2023-07-31T12:43:25;10.18;;;9.35;;
39066;SDS011;24821;51.988;6.020;2023-07-31T12:45:51;9.00;;;8.50;;
39066;SDS011;24821;51.988;6.020;2023-07-31T12:48:16;10.25;;;9.43;;
39066;SDS011;24821;51.988;6.020;2023-07-31T12:50:42;9.43;;;8.90;;
39066;SDS011;24821;51.988;6.020;2023-07-31T12:53:08;9.30;;;8.70;;
39066;SDS011;24821;51.988;6.020;2023-07-31T12:55:33;8.95;;;8.45;;
39066;SDS011;24821;51.988;6.020;2023-07-31T12:58:00;10.48;;;9.55;;
39066;SDS011;24821;51.988;6.020;2023-07-31T13:00:25;10.90;;;10.20;;
39066;SDS011;24821;51.988;6.020;2023-07-31T13:02:51;9.95;;;9.35;;
39066;SDS011;24821;51.988;6.020;2023-07-31T13:05:17;10.55;;;9.75;;
39066;SDS011;24821;51.988;6.020;2023-07-31T13:07:44;11.88;;;11.07;;
39066;SDS011;24821;51.988;6.020;2023-07-31T13:10:10;10.60;;;9.65;;
39066;SDS011;24821;51.988;6.020;2023-07-31T13:12:36;10.07;;;9.25;;
39066;SDS011;24821;51.988;6.020;2023-07-31T13:15:01;10.45;;;9.85;;
39066;SDS011;24821;51.988;6.020;2023-07-31T13:17:28;9.98;;;9.45;;
39066;SDS011;24821;51.988;6.020;2023-07-31T13:19:53;11.30;;;10.48;;
39066;SDS011;24821;51.988;6.020;2023-07-31T13:22:19;12.05;;;11.05;;
39066;SDS011;24821;51.988;6.020;2023-07-31T13:24:44;12.15;;;11.45;;
39066;SDS011;24821;51.988;6.020;2023-07-31T13:27:10;10.15;;;9.55;;
39066;SDS011;24821;51.988;6.020;2023-07-31T13:29:35;10.55;;;9.75;;
39066;SDS011;24821;51.988;6.020;2023-07-31T13:32:01;10.63;;;10.05;;
39066;SDS011;24821;51.988;6.020;2023-07-31T13:34:27;8.85;;;8.25;;
39066;SDS011;24821;51.988;6.020;2023-07-31T13:36:53;10.45;;;9.85;;
39066;SDS011;24821;51.988;6.020;2023-07-31T13:39:20;9.88;;;9.05;;
39066;SDS011;24821;51.988;6.020;2023-07-31T13:41:46;10.40;;;9.80;;
39066;SDS011;24821;51.988;6.020;2023-07-31T13:44:12;10.40;;;9.70;;
39066;SDS011;24821;51.988;6.020;2023-07-31T13:46:38;10.05;;;9.35;;
39066;SDS011;24821;51.988;6.020;2023-07-31T13:49:03;8.57;;;8.18;;
39066;SDS011;24821;51.988;6.020;2023-07-31T13:51:29;8.68;;;8.07;;
39066;SDS011;24821;51.988;6.020;2023-07-31T13:53:54;9.25;;;8.50;;
39066;SDS011;24821;51.988;6.020;2023-07-31T13:56:20;8.15;;;7.68;;
39066;SDS011;24821;51.988;6.020;2023-07-31T13:58:46;7.22;;;6.82;;
39066;SDS011;24821;51.988;6.020;2023-07-31T14:01:11;7.95;;;7.55;;
39066;SDS011;24821;51.988;6.020;2023-07-31T14:03:37;9.27;;;8.68;;
39066;SDS011;24821;51.988;6.020;2023-07-31T14:06:02;9.15;;;8.48;;
39066;SDS011;24821;51.988;6.020;2023-07-31T14:08:29;9.57;;;8.88;;
39066;SDS011;24821;51.988;6.020;2023-07-31T14:10:55;9.63;;;8.73;;
39066;SDS011;24821;51.988;6.020;2023-07-31T14:13:20;9.45;;;8.95;;
39066;SDS011;24821;51.988;6.020;2023-07-31T14:15:46;8.30;;;7.90;;
39066;SDS011;24821;51.988;6.020;2023-07-31T14:18:11;9.95;;;9.23;;
39066;SDS011;24821;51.988;6.020;2023-07-31T14:20:37;11.00;;;9.48;;
39066;SDS011;24821;51.988;6.020;2023-07-31T14:23:03;8.43;;;7.70;;
39066;SDS011;24821;51.988;6.020;2023-07-31T14:25:29;8.65;;;7.85;;
39066;SDS011;24821;51.988;6.020;2023-07-31T14:27:54;9.45;;;8.65;;
39066;SDS011;24821;51.988;6.020;2023-07-31T14:30:20;8.52;;;7.95;;
39066;SDS011;24821;51.988;6.020;2023-07-31T14:32:46;8.77;;;8.18;;
39066;SDS011;24821;51.988;6.020;2023-07-31T14:35:12;9.27;;;8.55;;
39066;SDS011;24821;51.988;6.020;2023-07-31T14:37:41;9.02;;;8.32;;
39066;SDS011;24821;51.988;6.020;2023-07-31T14:40:08;9.75;;;8.98;;